Delta Virtual Airport Information Service

Kingston Norman Manley International Airport

ICAO: MKJP Country: Jamaica
Latitude: 17.9357 Longitude: -76.7875
Latest Arrival : DAC5192 (KLAS-MKJP) Latest Departure : DAC5192 (MKJP-SEQM)


WX CaptureLIVE
Data provided by noaa.gov | Fetched at 23:34:36

METAR : MKJP 120300Z 11019KT 9999 FEW022 29/21 Q1016

TAF : MKJP 112315Z 1200/1224 12015KT 9999 FEW024 BECMG 1206/1208 36005KT BECMG 1214/1216 14025KT


Runway Data for MKJP
Data provided by openaviationdata.com

Runway ID Mag Var Hdg Length Elevation Surface ILS Freq ILS Id ILS Slope
12 -6 118° 8910 ft 10 ft Asphalt 109.1 IMLY 3
30 -6 298° 8910 ft 10 ft Asphalt -- -- --

Kingston Norman Manley International Airport, Jamaica
Use only for reference purposes



Not for navigational purposes.